createdAt,value
2022-08-26T00:01:59.716Z,14.73
2022-08-26T00:04:28.753Z,14.77
2022-08-26T00:06:56.334Z,15.18
2022-08-26T00:09:23.578Z,14.65
2022-08-26T00:11:51.624Z,15.98
2022-08-26T00:14:18.388Z,15.15
2022-08-26T00:16:48.226Z,14.37
2022-08-26T00:19:19.217Z,14.90
2022-08-26T00:21:48.693Z,15.15
2022-08-26T00:24:21.724Z,14.57
2022-08-26T00:26:49.073Z,15.18
2022-08-26T00:29:15.999Z,14.43
2022-08-26T00:31:42.544Z,15.57
2022-08-26T00:34:12.071Z,15.50
2022-08-26T00:36:39.701Z,14.90
2022-08-26T00:39:07.591Z,15.95
2022-08-26T00:41:35.349Z,15.70
2022-08-26T00:44:01.974Z,14.98
2022-08-26T00:46:31.390Z,14.98
2022-08-26T00:49:29.970Z,15.35
2022-08-26T00:52:01.084Z,15.75
2022-08-26T00:54:31.705Z,15.90
2022-08-26T00:57:04.859Z,19.50
2022-08-26T00:59:35.938Z,19.65
2022-08-26T01:02:05.943Z,16.98
2022-08-26T01:04:36.050Z,20.77
2022-08-26T01:07:03.876Z,22.80
2022-08-26T01:09:32.304Z,26.88
2022-08-26T01:12:02.068Z,26.08
2022-08-26T01:14:36.696Z,27.55
2022-08-26T01:17:05.503Z,28.85
2022-08-26T01:19:47.408Z,28.80
2022-08-26T01:22:23.131Z,30.05
2022-08-26T01:24:55.003Z,28.20
2022-08-26T01:27:23.391Z,29.58
2022-08-26T01:29:50.690Z,29.55
2022-08-26T01:32:22.229Z,30.03
2022-08-26T01:34:50.111Z,31.85
2022-08-26T01:37:20.627Z,30.25
2022-08-26T01:39:51.308Z,32.15
2022-08-26T01:42:20.773Z,31.40
2022-08-26T01:44:59.851Z,31.37
2022-08-26T01:47:29.933Z,33.15
2022-08-26T01:49:59.785Z,31.33
2022-08-26T01:52:28.610Z,32.17
2022-08-26T01:54:57.090Z,31.33
2022-08-26T01:57:25.895Z,32.67
2022-08-26T01:59:55.640Z,31.25
2022-08-26T02:02:23.255Z,30.48
2022-08-26T02:04:57.228Z,32.03
2022-08-26T02:07:26.707Z,31.48
2022-08-26T02:09:53.869Z,32.80
2022-08-26T02:12:21.027Z,34.65
2022-08-26T02:14:53.581Z,34.40
2022-08-26T02:17:25.768Z,34.50
2022-08-26T02:19:52.711Z,32.65
2022-08-26T02:22:22.023Z,32.27
2022-08-26T02:24:52.682Z,31.40
2022-08-26T02:27:26.343Z,30.73
2022-08-26T02:30:03.265Z,31.67
2022-08-26T02:32:29.735Z,29.13
2022-08-26T02:34:56.367Z,31.27
2022-08-26T02:37:23.128Z,29.10
2022-08-26T02:39:49.627Z,31.10
2022-08-26T02:42:16.232Z,31.50
2022-08-26T02:44:42.673Z,30.73
2022-08-26T02:47:13.652Z,30.27
2022-08-26T02:49:47.473Z,27.90
2022-08-26T02:52:14.167Z,28.15
2022-08-26T02:54:40.567Z,29.48
2022-08-26T02:57:07.052Z,27.33
2022-08-26T02:59:35.871Z,28.13
2022-08-26T03:02:03.056Z,29.35
2022-08-26T03:04:31.063Z,28.25
2022-08-26T03:06:59.963Z,29.30
2022-08-26T03:09:27.004Z,30.05
2022-08-26T03:11:55.271Z,31.23
2022-08-26T03:14:23.899Z,30.75
2022-08-26T03:16:53.862Z,31.95
2022-08-26T03:19:22.834Z,30.73
2022-08-26T03:21:49.658Z,30.15
2022-08-26T03:24:17.459Z,30.53
2022-08-26T03:26:52.017Z,31.40
2022-08-26T03:29:38.641Z,30.00
2022-08-26T03:32:06.136Z,29.13
2022-08-26T03:34:32.991Z,30.70
2022-08-26T03:36:59.646Z,28.93
2022-08-26T03:39:26.314Z,30.25
2022-08-26T03:41:53.587Z,31.85
2022-08-26T03:44:20.880Z,33.50
2022-08-26T03:46:47.341Z,31.67
2022-08-26T03:49:15.171Z,29.90
2022-08-26T03:51:42.091Z,30.77
2022-08-26T03:54:09.159Z,29.88
2022-08-26T03:56:36.612Z,30.00
2022-08-26T03:59:04.600Z,30.95
2022-08-26T04:01:31.953Z,29.40
2022-08-26T04:04:00.325Z,29.80
2022-08-26T04:06:30.227Z,29.40
2022-08-26T04:08:58.820Z,29.20
2022-08-26T04:11:34.118Z,29.90
2022-08-26T04:14:04.923Z,29.27
2022-08-26T04:16:31.573Z,28.83
2022-08-26T04:18:58.841Z,27.60
2022-08-26T04:21:26.689Z,27.90
2022-08-26T04:23:54.316Z,28.35
2022-08-26T04:26:22.206Z,27.37
2022-08-26T04:28:50.256Z,27.00
2022-08-26T04:31:18.558Z,25.40
2022-08-26T04:33:47.644Z,26.35
2022-08-26T04:36:16.732Z,27.55
2022-08-26T04:38:43.199Z,24.43
2022-08-26T04:41:15.292Z,25.77
2022-08-26T04:43:44.396Z,25.90
2022-08-26T04:46:13.090Z,23.73
2022-08-26T04:48:41.144Z,24.90
2022-08-26T04:51:09.384Z,24.93
2022-08-26T04:53:36.796Z,24.02
2022-08-26T04:56:03.352Z,23.67
2022-08-26T04:58:31.022Z,23.30
2022-08-26T05:00:58.350Z,23.70
2022-08-26T05:03:27.181Z,21.23
2022-08-26T05:05:57.371Z,21.38
2022-08-26T05:08:24.203Z,21.65
2022-08-26T05:10:56.260Z,21.83
2022-08-26T05:13:25.426Z,21.83
2022-08-26T05:15:52.502Z,21.67
2022-08-26T05:18:22.784Z,21.88
2022-08-26T05:20:53.953Z,21.42
2022-08-26T05:23:22.805Z,21.27
2022-08-26T05:25:53.645Z,20.95
2022-08-26T05:28:22.606Z,20.20
2022-08-26T05:30:49.958Z,21.48
2022-08-26T05:33:17.272Z,21.15
2022-08-26T05:35:45.240Z,20.23
2022-08-26T05:38:15.539Z,20.27
2022-08-26T05:40:45.682Z,19.87
2022-08-26T05:43:13.446Z,20.65
2022-08-26T05:45:46.118Z,21.00
2022-08-26T05:48:13.782Z,21.48
2022-08-26T05:50:46.537Z,19.85
2022-08-26T05:53:15.313Z,21.10
2022-08-26T05:55:48.053Z,20.50
2022-08-26T05:58:15.064Z,20.75
2022-08-26T06:00:45.118Z,19.88
2022-08-26T06:03:11.725Z,20.15
2022-08-26T06:05:41.823Z,22.57
2022-08-26T06:08:11.608Z,21.27
2022-08-26T06:10:49.227Z,21.35
2022-08-26T06:13:19.469Z,21.70
2022-08-26T06:15:48.339Z,21.45
2022-08-26T06:18:17.179Z,21.47
2022-08-26T06:20:57.070Z,20.52
2022-08-26T06:23:45.002Z,21.00
2022-08-26T06:26:12.771Z,21.10
2022-08-26T06:28:39.234Z,20.25
2022-08-26T06:31:06.057Z,21.67
2022-08-26T06:33:33.259Z,20.65
2022-08-26T06:36:01.030Z,20.48
2022-08-26T06:38:28.673Z,20.85
2022-08-26T06:40:55.343Z,20.55
2022-08-26T06:43:24.135Z,19.57
2022-08-26T06:45:51.122Z,19.52
2022-08-26T06:48:20.416Z,20.20
2022-08-26T06:50:47.897Z,19.55
2022-08-26T06:53:16.966Z,20.15
2022-08-26T06:55:46.850Z,18.77
2022-08-26T06:58:18.259Z,18.45
2022-08-26T07:00:47.515Z,18.80
2022-08-26T07:03:14.231Z,19.50
2022-08-26T07:05:40.720Z,18.55
2022-08-26T07:08:07.235Z,18.63
2022-08-26T07:10:35.681Z,16.67
2022-08-26T07:13:02.586Z,17.70
2022-08-26T07:15:31.418Z,17.38
2022-08-26T07:17:58.114Z,17.48
2022-08-26T07:20:24.561Z,16.97
2022-08-26T07:22:51.422Z,16.15
2022-08-26T07:25:19.261Z,15.77
2022-08-26T07:27:46.511Z,15.20
2022-08-26T07:30:20.792Z,14.35
2022-08-26T07:32:47.436Z,13.97
2022-08-26T07:35:14.605Z,13.40
2022-08-26T07:37:41.051Z,13.55
2022-08-26T07:40:09.373Z,12.70
2022-08-26T07:42:35.979Z,12.18
2022-08-26T07:45:02.435Z,12.00
2022-08-26T07:47:29.007Z,11.23
2022-08-26T07:49:57.445Z,11.30
2022-08-26T07:52:27.193Z,10.85
2022-08-26T07:54:55.207Z,10.20
2022-08-26T07:57:21.768Z,10.70
2022-08-26T07:59:51.289Z,10.80
2022-08-26T08:02:17.802Z,11.65
2022-08-26T08:04:45.020Z,11.35
2022-08-26T08:07:12.555Z,11.23
2022-08-26T08:09:40.733Z,11.57
2022-08-26T08:12:07.563Z,11.40
2022-08-26T08:14:36.443Z,11.13
2022-08-26T08:17:04.463Z,12.05
2022-08-26T08:19:36.672Z,11.75
2022-08-26T08:22:17.385Z,11.03
2022-08-26T08:24:46.773Z,11.27
2022-08-26T08:27:18.126Z,10.90
2022-08-26T08:29:47.927Z,10.38
2022-08-26T08:32:15.467Z,11.02
2022-08-26T08:37:13.578Z,10.20
2022-08-26T08:39:40.891Z,9.55
2022-08-26T08:42:19.939Z,9.48
2022-08-26T08:44:52.874Z,8.88
2022-08-26T08:47:42.061Z,9.63
2022-08-26T08:50:25.546Z,9.25
2022-08-26T08:52:59.379Z,9.00
2022-08-26T08:55:36.168Z,8.38
2022-08-26T08:58:06.651Z,8.70
2022-08-26T09:01:00.209Z,8.27
2022-08-26T09:03:55.410Z,8.23
2022-08-26T09:06:21.914Z,8.45
2022-08-26T09:08:51.092Z,8.23
2022-08-26T09:11:19.819Z,8.30
2022-08-26T09:13:53.702Z,8.10
2022-08-26T09:16:40.941Z,8.20
2022-08-26T09:19:33.132Z,8.55
2022-08-26T09:22:04.614Z,7.63
2022-08-26T09:24:39.632Z,8.13
2022-08-26T09:27:08.950Z,8.50
2022-08-26T09:29:43.763Z,7.95
2022-08-26T09:32:24.050Z,8.00
2022-08-26T09:35:27.768Z,8.55
2022-08-26T09:37:55.141Z,8.90
2022-08-26T09:40:27.467Z,8.63
2022-08-26T09:43:08.514Z,8.57
2022-08-26T09:45:37.191Z,8.95
2022-08-26T09:48:03.725Z,8.82
2022-08-26T09:50:36.395Z,8.85
2022-08-26T09:53:14.454Z,7.83
2022-08-26T09:55:47.558Z,6.80
2022-08-26T09:58:33.744Z,6.00
2022-08-26T10:01:04.237Z,5.93
2022-08-26T10:03:34.547Z,5.65
2022-08-26T10:06:21.155Z,5.50
2022-08-26T10:08:54.241Z,5.28
2022-08-26T10:11:31.173Z,5.53
2022-08-26T10:14:13.402Z,5.30
2022-08-26T10:16:50.697Z,5.30
2022-08-26T10:19:25.235Z,5.60
2022-08-26T10:22:06.050Z,5.38
2022-08-26T10:24:43.011Z,4.38
2022-08-26T10:27:51.003Z,4.28
2022-08-26T10:30:22.058Z,4.07
2022-08-26T10:32:52.077Z,3.80
2022-08-26T10:35:19.307Z,4.13
2022-08-26T10:37:49.892Z,3.72
2022-08-26T10:40:23.515Z,3.90
2022-08-26T10:42:55.263Z,3.88
2022-08-26T10:45:26.277Z,3.77
2022-08-26T10:48:16.452Z,3.50
2022-08-26T10:50:47.629Z,4.00
2022-08-26T10:53:19.742Z,3.85
2022-08-26T10:56:05.372Z,3.97
2022-08-26T10:58:50.352Z,4.20
2022-08-26T11:01:44.186Z,4.03
2022-08-26T11:04:38.531Z,3.53
2022-08-26T11:07:32.751Z,3.03
2022-08-26T11:10:20.662Z,3.25
2022-08-26T11:12:49.603Z,2.97
2022-08-26T11:15:24.731Z,2.88
2022-08-26T11:17:51.343Z,2.92
2022-08-26T11:20:29.932Z,2.85
2022-08-26T11:23:28.166Z,3.05
2022-08-26T11:26:10.076Z,2.80
2022-08-26T11:28:44.265Z,2.90
2022-08-26T11:31:32.590Z,3.10
2022-08-26T11:34:01.887Z,3.20
2022-08-26T11:36:47.637Z,3.33
2022-08-26T11:39:36.699Z,2.83
2022-08-26T11:42:20.328Z,3.15
2022-08-26T11:44:49.628Z,3.42
2022-08-26T11:47:25.266Z,3.25
2022-08-26T11:50:06.773Z,3.58
2022-08-26T11:52:33.232Z,3.07
2022-08-26T11:55:08.026Z,3.45
2022-08-26T11:57:41.839Z,3.85
2022-08-26T12:00:14.189Z,3.80
2022-08-26T12:02:43.556Z,4.10
2022-08-26T12:05:14.763Z,4.00
2022-08-26T12:07:42.645Z,4.53
2022-08-26T12:10:10.790Z,4.05
2022-08-26T12:12:38.713Z,3.90
2022-08-26T12:15:12.472Z,3.78
2022-08-26T12:17:39.939Z,3.57
2022-08-26T12:20:46.197Z,4.03
2022-08-26T12:23:41.360Z,3.42
2022-08-26T12:26:27.622Z,3.22
2022-08-26T12:29:02.316Z,3.65
2022-08-26T12:31:44.252Z,3.57
2022-08-26T12:34:17.972Z,3.15
2022-08-26T12:36:47.311Z,3.38
2022-08-26T12:39:24.096Z,3.40
2022-08-26T12:41:56.313Z,3.70
2022-08-26T12:44:41.768Z,3.33
2022-08-26T12:47:43.157Z,3.33
2022-08-26T12:50:18.673Z,3.38
2022-08-26T12:53:09.741Z,3.05
2022-08-26T12:55:44.708Z,3.20
2022-08-26T12:58:29.886Z,3.60
2022-08-26T13:01:22.452Z,3.22
2022-08-26T13:03:49.486Z,3.05
2022-08-26T13:06:22.191Z,3.03
2022-08-26T13:08:57.927Z,3.38
2022-08-26T13:11:35.269Z,3.50
2022-08-26T13:14:07.766Z,3.10
2022-08-26T13:16:36.005Z,3.55
2022-08-26T13:19:10.557Z,2.60
2022-08-26T13:21:43.703Z,2.70
2022-08-26T13:24:33.493Z,2.60
2022-08-26T13:27:01.026Z,2.70
2022-08-26T13:29:27.605Z,3.22
2022-08-26T13:31:55.379Z,3.00
2022-08-26T13:34:23.341Z,3.70
2022-08-26T13:36:51.713Z,3.50
2022-08-26T13:39:18.743Z,3.42
2022-08-26T13:41:46.140Z,2.70
2022-08-26T13:44:12.713Z,2.67
2022-08-26T13:46:39.343Z,2.08
2022-08-26T13:49:06.320Z,1.70
2022-08-26T13:51:33.247Z,2.80
2022-08-26T13:54:00.283Z,3.92
2022-08-26T13:56:29.555Z,3.33
2022-08-26T13:58:57.044Z,2.67
2022-08-26T14:01:24.236Z,2.53
2022-08-26T14:03:50.727Z,2.08
2022-08-26T14:06:17.244Z,2.38
2022-08-26T14:08:44.554Z,2.22
2022-08-26T14:11:11.310Z,1.98
2022-08-26T14:13:39.116Z,1.80
2022-08-26T14:16:10.416Z,2.00
2022-08-26T14:18:42.539Z,2.00
2022-08-26T14:21:13.031Z,2.05
2022-08-26T14:23:40.126Z,1.90
2022-08-26T14:26:08.314Z,2.00
2022-08-26T14:28:36.179Z,1.95
2022-08-26T14:31:04.009Z,2.10
2022-08-26T14:33:33.882Z,1.90
2022-08-26T14:36:20.100Z,1.90
2022-08-26T14:38:46.907Z,2.33
2022-08-26T14:41:17.137Z,2.28
2022-08-26T14:43:49.848Z,2.13
2022-08-26T14:46:17.767Z,2.20
2022-08-26T14:48:44.714Z,2.10
2022-08-26T14:51:11.653Z,2.10
2022-08-26T14:53:56.598Z,2.30
2022-08-26T14:56:23.124Z,2.47
2022-08-26T14:58:49.558Z,2.20
2022-08-26T15:01:15.989Z,2.90
2022-08-26T15:03:42.657Z,2.83
2022-08-26T15:06:10.340Z,2.92
2022-08-26T15:08:37.275Z,2.80
2022-08-26T15:11:04.172Z,3.13
2022-08-26T15:13:30.798Z,3.20
2022-08-26T15:15:57.402Z,2.67
2022-08-26T15:18:23.953Z,2.40
2022-08-26T15:20:50.398Z,2.88
2022-08-26T15:23:16.800Z,2.53
2022-08-26T15:25:45.664Z,2.70
2022-08-26T15:28:12.074Z,2.90
2022-08-26T15:30:39.143Z,2.72
2022-08-26T15:33:05.576Z,2.40
2022-08-26T15:35:41.514Z,2.70
2022-08-26T15:38:10.513Z,2.70
2022-08-26T15:40:37.359Z,2.90
2022-08-26T15:43:18.470Z,2.83
2022-08-26T15:45:50.530Z,2.88
2022-08-26T15:48:16.912Z,2.50
2022-08-26T15:50:50.965Z,2.58
2022-08-26T15:53:17.430Z,2.30
2022-08-26T15:55:43.859Z,2.50
2022-08-26T15:58:10.419Z,2.15
2022-08-26T16:00:37.642Z,2.15
2022-08-26T16:03:04.185Z,2.33
2022-08-26T16:05:30.670Z,2.07
2022-08-26T16:07:57.687Z,2.20
2022-08-26T16:10:24.346Z,1.90
2022-08-26T16:12:50.785Z,2.05
2022-08-26T16:15:17.236Z,2.17
2022-08-26T16:17:43.621Z,1.63
2022-08-26T16:20:10.112Z,1.80
2022-08-26T16:22:36.508Z,2.05
2022-08-26T16:25:02.972Z,2.15
2022-08-26T16:27:29.391Z,2.03
2022-08-26T16:29:55.935Z,2.00
2022-08-26T16:32:22.375Z,2.15
2022-08-26T16:34:56.651Z,2.10
2022-08-26T16:37:23.567Z,2.03
2022-08-26T16:39:50.015Z,2.20
2022-08-26T16:42:16.458Z,2.10
2022-08-26T16:44:45.522Z,2.00
2022-08-26T16:47:14.036Z,1.80
2022-08-26T16:49:41.090Z,1.58
2022-08-26T16:52:09.092Z,1.60
2022-08-26T16:54:36.469Z,1.80
2022-08-26T16:57:02.936Z,1.20
2022-08-26T16:59:32.644Z,1.40
2022-08-26T17:01:59.351Z,1.30
2022-08-26T17:04:26.690Z,1.30
2022-08-26T17:06:53.418Z,1.67
2022-08-26T17:09:20.068Z,1.20
2022-08-26T17:11:46.494Z,1.40
2022-08-26T17:14:13.264Z,1.27
2022-08-26T17:16:39.771Z,1.50
2022-08-26T17:19:06.453Z,1.23
2022-08-26T17:21:35.224Z,1.20
2022-08-26T17:24:02.787Z,1.40
2022-08-26T17:26:29.616Z,1.30
2022-08-26T17:28:56.027Z,1.20
2022-08-26T17:31:23.549Z,1.13
2022-08-26T17:33:50.920Z,1.20
2022-08-26T17:36:20.538Z,1.10
2022-08-26T17:38:46.931Z,0.95
2022-08-26T17:41:16.412Z,1.10
2022-08-26T17:43:42.871Z,1.20
2022-08-26T17:46:10.879Z,1.02
2022-08-26T17:48:39.453Z,1.17
2022-08-26T17:51:12.081Z,0.98
2022-08-26T17:53:39.200Z,1.30
2022-08-26T17:56:07.828Z,1.00
2022-08-26T17:58:35.523Z,0.90
2022-08-26T18:03:29.146Z,0.70
2022-08-26T18:05:55.618Z,1.00
2022-08-26T18:08:22.760Z,0.90
2022-08-26T18:10:49.471Z,1.05
2022-08-26T18:13:16.934Z,0.82
2022-08-26T18:15:45.417Z,0.85
2022-08-26T18:18:13.460Z,0.80
2022-08-26T18:20:41.591Z,1.00
2022-08-26T18:23:08.229Z,1.08
2022-08-26T18:25:35.124Z,0.80
2022-08-26T18:28:01.549Z,0.95
2022-08-26T18:30:27.936Z,0.80
2022-08-26T18:32:54.348Z,1.03
2022-08-26T18:35:21.471Z,0.98
2022-08-26T18:37:48.419Z,0.90
2022-08-26T18:40:16.062Z,0.82
2022-08-26T18:42:42.732Z,1.00
2022-08-26T18:45:09.841Z,0.80
2022-08-26T18:47:42.555Z,0.88
2022-08-26T18:50:10.788Z,0.80
2022-08-26T18:52:37.372Z,0.70
2022-08-26T18:55:04.233Z,1.00
2022-08-26T18:57:30.634Z,0.83
2022-08-26T18:59:57.091Z,1.05
2022-08-26T19:02:24.423Z,1.08
2022-08-26T19:04:51.799Z,1.10
2022-08-26T19:07:20.189Z,0.95
2022-08-26T19:09:46.609Z,1.10
2022-08-26T19:12:13.167Z,0.90
2022-08-26T19:14:39.937Z,0.82
2022-08-26T19:17:06.437Z,1.08
2022-08-26T19:19:33.161Z,1.00
2022-08-26T19:22:00.039Z,1.00
2022-08-26T19:24:28.430Z,0.90
2022-08-26T19:26:58.275Z,1.00
2022-08-26T19:29:27.148Z,1.13
2022-08-26T19:31:53.772Z,0.98
2022-08-26T19:34:20.893Z,0.90
2022-08-26T19:36:47.663Z,0.80
2022-08-26T19:39:14.226Z,0.93
2022-08-26T19:41:40.939Z,1.00
2022-08-26T19:44:12.893Z,1.05
2022-08-26T19:49:10.825Z,0.80
2022-08-26T19:51:37.596Z,0.98
2022-08-26T19:54:04.485Z,0.90
2022-08-26T19:56:31.660Z,0.90
2022-08-26T19:58:58.257Z,1.10
2022-08-26T20:01:25.424Z,0.85
2022-08-26T20:03:52.044Z,0.80
2022-08-26T20:06:19.958Z,1.02
2022-08-26T20:08:46.487Z,1.00
2022-08-26T20:11:17.250Z,0.90
2022-08-26T20:13:45.294Z,0.75
2022-08-26T20:16:12.068Z,0.95
2022-08-26T20:19:02.526Z,0.88
2022-08-26T20:21:34.029Z,1.08
2022-08-26T20:24:07.141Z,1.00
2022-08-26T20:26:35.337Z,0.70
2022-08-26T20:29:02.543Z,1.00
2022-08-26T20:31:29.588Z,1.00
2022-08-26T20:33:56.153Z,1.33
2022-08-26T20:36:24.362Z,1.23
2022-08-26T20:38:50.859Z,1.15
2022-08-26T20:41:17.495Z,1.25
2022-08-26T20:43:44.992Z,1.30
2022-08-26T20:46:18.183Z,1.30
2022-08-26T20:48:46.468Z,1.10
2022-08-26T20:51:12.927Z,1.10
2022-08-26T20:53:39.668Z,1.10
2022-08-26T20:56:08.660Z,1.23
2022-08-26T20:58:35.466Z,1.10
2022-08-26T21:01:07.346Z,1.00
2022-08-26T21:03:35.334Z,0.85
2022-08-26T21:06:03.052Z,1.25
2022-08-26T21:08:29.452Z,0.80
2022-08-26T21:10:55.842Z,1.00
2022-08-26T21:13:22.703Z,1.00
2022-08-26T21:15:49.141Z,0.95
2022-08-26T21:18:15.599Z,1.13
2022-08-26T21:20:41.999Z,0.90
2022-08-26T21:23:08.416Z,1.10
2022-08-26T21:25:34.807Z,1.10
2022-08-26T21:28:01.234Z,1.10
2022-08-26T21:30:27.824Z,1.30
2022-08-26T21:32:54.221Z,1.17
2022-08-26T21:35:20.724Z,1.10
2022-08-26T21:37:47.467Z,1.00
2022-08-26T21:40:14.093Z,0.82
2022-08-26T21:42:40.592Z,1.10
2022-08-26T21:45:07.379Z,0.85
2022-08-26T21:47:33.857Z,1.00
2022-08-26T21:50:00.343Z,1.20
2022-08-26T21:52:26.926Z,0.93
2022-08-26T21:55:01.231Z,1.10
2022-08-26T21:57:28.514Z,1.00
2022-08-26T21:59:55.661Z,1.08
2022-08-26T22:02:22.748Z,1.00
2022-08-26T22:04:49.455Z,0.80
2022-08-26T22:07:18.483Z,0.90
2022-08-26T22:09:46.917Z,0.75
2022-08-26T22:12:13.412Z,1.00
2022-08-26T22:14:39.902Z,1.10
2022-08-26T22:17:06.446Z,0.90
2022-08-26T22:19:34.020Z,1.10
2022-08-26T22:22:05.503Z,0.90
2022-08-26T22:24:32.263Z,0.80
2022-08-26T22:26:58.681Z,1.00
2022-08-26T22:29:25.594Z,1.00
2022-08-26T22:31:52.572Z,0.88
2022-08-26T22:34:20.628Z,0.75
2022-08-26T22:36:48.898Z,0.98
2022-08-26T22:39:21.927Z,1.07
2022-08-26T22:41:49.376Z,0.93
2022-08-26T22:44:17.515Z,1.10
2022-08-26T22:46:45.086Z,0.80
2022-08-26T22:49:17.672Z,0.90
2022-08-26T22:51:45.466Z,0.90
2022-08-26T22:54:12.562Z,0.88
2022-08-26T22:56:39.701Z,0.90
2022-08-26T22:59:10.031Z,1.00
2022-08-26T23:01:39.671Z,0.90
2022-08-26T23:04:07.803Z,1.07
2022-08-26T23:06:36.948Z,1.30
2022-08-26T23:09:05.034Z,1.10
2022-08-26T23:11:31.839Z,1.15
2022-08-26T23:13:58.261Z,1.00
2022-08-26T23:16:28.179Z,1.60
2022-08-26T23:19:02.342Z,1.40
2022-08-26T23:21:29.862Z,1.45
2022-08-26T23:23:56.332Z,1.60
2022-08-26T23:26:23.817Z,1.40
2022-08-26T23:28:50.288Z,1.23
2022-08-26T23:31:16.740Z,1.20
2022-08-26T23:34:01.779Z,1.67
2022-08-26T23:36:30.966Z,1.50
2022-08-26T23:39:00.819Z,1.42
2022-08-26T23:41:30.250Z,1.10
2022-08-26T23:43:59.528Z,1.40
2022-08-26T23:46:28.080Z,1.23
2022-08-26T23:48:54.500Z,1.23
2022-08-26T23:51:39.308Z,1.40
2022-08-26T23:54:06.527Z,1.50
2022-08-26T23:56:34.716Z,1.40
2022-08-26T23:59:01.132Z,1.77
